Time;durP1;ratioP1;P1;durP2;ratioP2;P2;SDS_P1;SDS_P2;PMS_P1;PMS_P2;Temp;Humidity;BMP_temperature;BMP_pressure;BME280_temperature;BME280_humidity;BME280_pressure;Samples;Min_cycle;Max_cycle;Signal;HPM_P1;HPM_P2
2023/07/02 00:00:55;;;;;;;71.55;24.92;;;21.80;74.80;;;;;;7376856;19;20007;-73
2023/07/02 00:03:24;;;;;;;74.97;25.05;;;21.70;75.00;;;;;;7377777;19;20002;-72
2023/07/02 00:05:56;;;;;;;67.05;24.35;;;21.70;75.20;;;;;;7377510;19;20018;-73
2023/07/02 00:08:25;;;;;;;70.72;24.63;;;21.60;75.30;;;;;;7399055;19;20031;-73
2023/07/02 00:10:58;;;;;;;67.80;25.70;;;21.60;75.50;;;;;;7376634;19;20019;-72
2023/07/02 00:13:26;;;;;;;62.88;24.73;;;21.50;75.70;;;;;;7381804;19;20031;-73
2023/07/02 00:19:06;;;;;;;67.50;24.02;;;21.30;76.50;;;;;;7379252;19;20276;-73
2023/07/02 00:21:37;;;;;;;66.00;24.67;;;21.30;76.60;;;;;;7376787;19;20014;-72
2023/07/02 00:24:06;;;;;;;69.03;24.52;;;21.40;76.40;;;;;;7377201;19;20011;-71
2023/07/02 00:26:38;;;;;;;67.80;25.92;;;21.50;76.40;;;;;;7398717;19;20015;-73
2023/07/02 00:29:08;;;;;;;71.55;25.75;;;21.40;76.30;;;;;;7377325;19;20015;-73
2023/07/02 00:31:37;;;;;;;74.03;23.93;;;21.50;76.30;;;;;;7379908;19;20009;-72
2023/07/02 00:34:06;;;;;;;64.97;24.85;;;21.40;76.40;;;;;;7383182;19;20433;-72
2023/07/02 00:36:35;;;;;;;59.38;23.75;;;21.50;76.70;;;;;;7394764;19;20028;-74
2023/07/02 00:39:04;;;;;;;76.18;24.13;;;21.50;76.70;;;;;;7403765;19;20011;-73
2023/07/02 00:41:32;;;;;;;72.00;25.27;;;21.50;76.60;;;;;;7408577;19;20381;-73
2023/07/02 00:44:04;;;;;;;66.07;24.13;;;21.50;76.40;;;;;;7383153;19;20231;-73
2023/07/02 00:46:33;;;;;;;68.90;24.15;;;21.60;76.30;;;;;;7383833;19;20070;-73
2023/07/02 00:49:04;;;;;;;68.05;24.08;;;21.40;76.30;;;;;;7382432;19;20006;-73
2023/07/02 00:51:33;;;;;;;67.75;24.02;;;21.40;76.60;;;;;;7381750;19;20380;-73
2023/07/02 00:54:02;;;;;;;62.72;24.48;;;21.40;76.70;;;;;;7381300;19;19999;-72
2023/07/02 00:56:31;;;;;;;63.05;24.48;;;21.40;76.70;;;;;;7404956;19;20014;-72
2023/07/02 00:59:00;;;;;;;62.45;24.48;;;21.30;77.00;;;;;;7382658;19;20030;-73
2023/07/02 01:01:37;;;;;;;62.90;25.67;;;21.20;77.20;;;;;;7382510;19;20083;-74
2023/07/02 01:04:12;;;;;;;66.80;24.95;;;21.10;77.40;;;;;;7383431;19;20007;-73
2023/07/02 01:06:42;;;;;;;65.78;24.75;;;21.10;77.60;;;;;;7383650;19;20003;-73
2023/07/02 01:09:12;;;;;;;73.65;25.67;;;21.10;77.80;;;;;;7381367;19;20006;-72
2023/07/02 01:11:43;;;;;;;66.32;24.85;;;21.10;78.10;;;;;;7382707;19;20249;-72
2023/07/02 01:14:25;;;;;;;68.93;24.38;;;21.10;78.10;;;;;;7403642;19;20058;-72
2023/07/02 01:16:57;;;;;;;;;;;21.10;78.20;;;;;;7382924;19;20288;-73
2023/07/02 01:19:40;;;;;;;65.40;24.35;;;21.10;78.40;;;;;;7382629;19;19911;-72
2023/07/02 01:22:09;;;;;;;63.25;23.45;;;21.00;78.30;;;;;;7385835;19;20011;-73
2023/07/02 01:24:38;;;;;;;62.35;23.17;;;21.00;78.40;;;;;;7387523;19;20020;-72
2023/07/02 01:27:07;;;;;;;62.17;22.92;;;21.00;78.50;;;;;;7387290;19;20003;-72
2023/07/02 01:29:36;;;;;;;69.53;25.52;;;20.90;78.70;;;;;;7404667;19;20006;-72
2023/07/02 01:32:06;;;;;;;74.18;24.63;;;20.90;78.80;;;;;;7381357;19;20003;-72
2023/07/02 01:34:39;;;;;;;69.60;24.38;;;20.90;78.80;;;;;;7381119;19;20362;-72
2023/07/02 01:37:13;;;;;;;75.53;25.63;;;20.80;79.00;;;;;;7381241;19;20003;-72
2023/07/02 01:39:42;;;;;;;75.00;24.20;;;20.90;79.00;;;;;;7386052;19;20034;-72
2023/07/02 01:42:12;;;;;;;67.40;23.77;;;20.80;79.30;;;;;;7385732;19;20003;-72
2023/07/02 01:44:41;;;;;;;69.95;24.55;;;20.80;79.40;;;;;;7385920;19;20024;-73
2023/07/02 01:47:10;;;;;;;69.35;23.27;;;20.80;79.50;;;;;;7402124;19;20003;-72
2023/07/02 01:49:42;;;;;;;63.67;23.42;;;20.80;79.60;;;;;;7380558;19;20003;-73
2023/07/02 01:52:10;;;;;;;63.72;23.23;;;20.70;79.40;;;;;;7380208;19;20070;-72
2023/07/02 01:54:39;;;;;;;68.97;22.92;;;20.70;79.50;;;;;;7379137;19;20366;-72
2023/07/02 01:57:08;;;;;;;67.30;23.88;;;20.70;79.70;;;;;;7381198;19;20007;-72
2023/07/02 01:59:37;;;;;;;67.38;23.85;;;20.60;79.90;;;;;;7402257;19;20019;-73
2023/07/02 02:02:06;;;;;;;66.50;25.35;;;20.60;80.00;;;;;;7380215;19;20007;-72
2023/07/02 02:04:35;;;;;;;84.95;25.70;;;20.60;80.10;;;;;;7380802;19;20070;-73
2023/07/02 02:07:06;;;;;;;63.20;23.13;;;20.60;80.20;;;;;;7381260;19;20020;-73
2023/07/02 02:09:35;;;;;;;64.43;23.67;;;20.50;80.20;;;;;;7380089;19;19999;-72
2023/07/02 02:12:04;;;;;;;79.57;24.70;;;20.60;80.20;;;;;;7380563;19;20373;-73
2023/07/02 02:14:32;;;;;;;67.75;22.33;;;20.50;80.40;;;;;;7400157;19;20010;-72
2023/07/02 02:17:04;;;;;;;65.65;24.13;;;20.50;80.50;;;;;;7379804;19;20071;-72
2023/07/02 02:19:32;;;;;;;72.93;23.08;;;20.50;80.50;;;;;;7380339;19;20023;-73
2023/07/02 02:22:01;;;;;;;69.53;23.05;;;20.50;80.60;;;;;;7379899;19;20010;-72
2023/07/02 02:24:32;;;;;;;66.63;23.15;;;20.50;80.50;;;;;;7379824;19;20002;-73
2023/07/02 02:27:01;;;;;;;;;;;20.50;80.60;;;;;;7380324;19;20007;-73
2023/07/02 02:29:29;;;;;;;66.03;23.08;;;20.40;80.90;;;;;;7402425;19;20215;-73
2023/07/02 02:31:59;;;;;;;67.63;22.20;;;20.30;81.10;;;;;;7383362;19;20024;-73
2023/07/02 02:34:29;;;;;;;66.75;21.80;;;20.30;81.50;;;;;;7383816;19;20003;-73
2023/07/02 02:36:58;;;;;;;79.80;23.70;;;20.30;81.60;;;;;;7383703;19;20445;-74
2023/07/02 02:39:26;;;;;;;63.58;22.50;;;20.20;81.80;;;;;;7379349;19;20101;-73
2023/07/02 02:41:57;;;;;;;75.65;22.15;;;20.30;82.00;;;;;;7378579;19;20028;-73
2023/07/02 02:44:26;;;;;;;59.47;22.45;;;20.10;82.30;;;;;;7401118;19;20030;-72
2023/07/02 02:46:55;;;;;;;66.43;22.55;;;20.10;82.40;;;;;;7379335;19;20079;-74
2023/07/02 02:49:24;;;;;;;69.38;22.67;;;20.20;82.40;;;;;;7383056;19;20011;-73
2023/07/02 02:51:52;;;;;;;71.65;23.48;;;20.10;82.60;;;;;;7386041;19;20019;-73
2023/07/02 02:54:21;;;;;;;70.70;22.60;;;20.20;82.70;;;;;;7395800;19;20006;-73
2023/07/02 02:56:50;;;;;;;67.25;22.55;;;20.10;82.80;;;;;;7382308;19;20015;-72
2023/07/02 02:59:21;;;;;;;70.75;21.70;;;20.10;82.80;;;;;;7399661;19;20002;-73
2023/07/02 03:01:51;;;;;;;69.70;22.58;;;20.00;82.90;;;;;;7379690;19;20023;-74
2023/07/02 03:04:23;;;;;;;71.10;22.13;;;20.10;83.10;;;;;;7378706;19;20002;-72
2023/07/02 03:06:52;;;;;;;78.63;22.65;;;20.00;83.20;;;;;;7378081;19;20003;-71
2023/07/02 03:09:21;;;;;;;62.13;22.77;;;20.00;83.30;;;;;;7377339;19;20019;-72
2023/07/02 03:11:50;;;;;;;61.10;23.00;;;20.00;83.50;;;;;;7379094;19;20023;-73
2023/07/02 03:14:21;;;;;;;60.10;21.90;;;19.90;83.50;;;;;;7400297;19;20010;-73
2023/07/02 03:16:49;;;;;;;;;;;19.80;83.90;;;;;;7378793;19;20010;-72
2023/07/02 03:19:18;;;;;;;64.53;20.15;;;19.90;84.10;;;;;;7378478;19;19911;-73
2023/07/02 03:21:47;;;;;;;74.00;22.42;;;19.90;83.80;;;;;;7378072;19;20020;-72
2023/07/02 03:24:16;;;;;;;67.40;20.83;;;19.90;83.90;;;;;;7378468;19;20281;-73
2023/07/02 03:26:46;;;;;;;58.10;21.08;;;19.90;83.90;;;;;;7378185;19;20011;-73
2023/07/02 03:29:14;;;;;;;75.90;21.88;;;19.90;84.10;;;;;;7400666;19;20036;-73
2023/07/02 03:31:46;;;;;;;77.45;22.08;;;19.90;84.10;;;;;;7377917;19;20006;-73
2023/07/02 03:34:14;;;;;;;;;;;19.90;84.10;;;;;;7379030;19;20496;-73
2023/07/02 03:36:43;;;;;;;68.38;20.92;;;19.90;84.40;;;;;;7377334;19;19911;-72
2023/07/02 03:39:12;;;;;;;73.07;21.65;;;19.70;84.50;;;;;;7378706;19;20007;-72
2023/07/02 03:41:41;;;;;;;74.72;21.13;;;19.80;84.50;;;;;;7381282;19;20002;-72
2023/07/02 03:44:10;;;;;;;57.13;21.73;;;19.80;84.70;;;;;;7402810;19;20042;-73
2023/07/02 03:46:38;;;;;;;67.30;21.77;;;19.80;85.40;;;;;;7381150;19;20014;-73
2023/07/02 03:49:09;;;;;;;65.32;22.80;;;19.80;84.50;;;;;;7377881;19;20007;-73
2023/07/02 03:51:38;;;;;;;;;;;19.70;84.80;;;;;;7378766;19;20010;-72
2023/07/02 03:54:07;;;;;;;73.93;20.77;;;19.70;85.10;;;;;;7378919;19;19907;-74
2023/07/02 03:56:38;;;;;;;74.18;20.98;;;19.60;85.30;;;;;;7397962;19;20028;-74
2023/07/02 03:59:07;;;;;;;62.90;20.88;;;19.60;85.20;;;;;;7379125;19;20007;-74
2023/07/02 04:01:37;;;;;;;74.40;21.35;;;19.60;85.30;;;;;;7377663;19;20401;-73
2023/07/02 04:04:09;;;;;;;61.17;20.90;;;19.50;85.50;;;;;;7380060;19;20006;-73
2023/07/02 04:06:37;;;;;;;58.20;20.30;;;19.40;85.70;;;;;;7377983;19;20063;-73
2023/07/02 04:09:06;;;;;;;58.85;20.45;;;19.50;85.80;;;;;;7380447;19;20007;-73
2023/07/02 04:11:35;;;;;;;60.40;19.48;;;19.60;85.80;;;;;;7406266;19;20017;-74
2023/07/02 04:14:04;;;;;;;64.50;19.35;;;19.50;85.60;;;;;;7385316;19;20024;-73
2023/07/02 04:16:33;;;;;;;54.78;20.17;;;19.60;85.50;;;;;;7383498;19;20067;-73
2023/07/02 04:19:02;;;;;;;62.42;19.70;;;19.70;85.40;;;;;;7384926;19;20006;-73
2023/07/02 04:21:33;;;;;;;59.40;20.20;;;19.70;85.30;;;;;;7384040;19;20006;-73
2023/07/02 04:24:02;;;;;;;76.18;20.63;;;19.60;85.40;;;;;;7384158;19;20014;-73
2023/07/02 04:26:30;;;;;;;64.75;19.95;;;19.70;85.50;;;;;;7406427;19;20007;-72
2023/07/02 04:28:59;;;;;;;67.15;21.52;;;19.70;85.40;;;;;;7383163;19;20059;-72
2023/07/02 04:31:28;;;;;;;68.25;20.55;;;19.70;85.40;;;;;;7383248;19;20248;-73
2023/07/02 04:33:57;;;;;;;64.18;20.52;;;19.70;85.20;;;;;;7383759;19;20022;-72
2023/07/02 04:36:25;;;;;;;64.38;19.73;;;19.70;85.20;;;;;;7383201;19;20019;-73
2023/07/02 04:38:57;;;;;;;63.95;19.58;;;19.70;85.40;;;;;;7383662;19;20022;-72
2023/07/02 04:41:25;;;;;;;;;;;19.70;85.40;;;;;;7406534;19;20014;-73
2023/07/02 04:43:54;;;;;;;62.30;19.20;;;19.80;85.50;;;;;;7383367;19;20299;-73
2023/07/02 04:46:23;;;;;;;63.75;19.33;;;19.70;85.20;;;;;;7383465;19;20007;-74
2023/07/02 04:48:51;;;;;;;53.30;18.73;;;19.70;85.40;;;;;;7382320;19;20003;-73
2023/07/02 04:51:23;;;;;;;58.75;20.27;;;19.80;85.50;;;;;;7381418;19;20019;-73
2023/07/02 04:53:52;;;;;;;64.85;20.70;;;19.90;85.40;;;;;;7380789;19;20020;-73
2023/07/02 04:56:23;;;;;;;61.42;19.58;;;20.00;85.10;;;;;;7403158;19;20300;-72
2023/07/02 04:58:51;;;;;;;;;;;20.00;84.80;;;;;;7384148;19;20019;-73
2023/07/02 05:01:20;;;;;;;64.53;18.48;;;20.10;84.40;;;;;;7382822;19;19978;-72
2023/07/02 05:03:49;;;;;;;57.58;19.17;;;20.10;84.30;;;;;;7382892;19;20003;-73
2023/07/02 05:06:18;;;;;;;71.30;18.42;;;20.10;84.40;;;;;;7384202;19;20016;-73
2023/07/02 05:08:46;;;;;;;64.60;19.27;;;20.10;84.60;;;;;;7385751;19;20011;-73
2023/07/02 05:11:19;;;;;;;56.33;18.67;;;20.00;84.70;;;;;;7403545;19;20066;-73
2023/07/02 05:13:50;;;;;;;57.97;20.23;;;20.10;84.80;;;;;;7399221;19;19999;-73
2023/07/02 05:16:19;;;;;;;55.53;19.13;;;20.20;84.60;;;;;;7386405;19;20386;-73
2023/07/02 05:18:47;;;;;;;69.15;19.65;;;20.10;84.60;;;;;;7383575;19;20010;-72
2023/07/02 05:21:20;;;;;;;61.33;17.40;;;20.10;84.80;;;;;;7380554;19;20010;-73
2023/07/02 05:23:50;;;;;;;74.90;19.25;;;20.10;85.10;;;;;;7382803;19;20078;-73
2023/07/02 05:26:18;;;;;;;53.40;17.83;;;19.90;85.10;;;;;;7406472;19;20007;-73
2023/07/02 05:28:50;;;;;;;52.15;18.20;;;20.00;85.30;;;;;;7381118;19;20007;-73
2023/07/02 05:31:19;;;;;;;61.00;19.25;;;20.00;85.40;;;;;;7380856;19;20078;-73
2023/07/02 05:33:47;;;;;;;54.38;17.70;;;19.80;86.00;;;;;;7380266;19;20006;-72
2023/07/02 05:36:17;;;;;;;70.93;18.90;;;19.90;86.00;;;;;;7380869;19;20010;-72
2023/07/02 05:38:45;;;;;;;63.33;19.20;;;19.90;85.80;;;;;;7378719;19;20031;-73
2023/07/02 05:41:20;;;;;;;56.50;17.17;;;20.00;85.80;;;;;;7400376;19;20383;-73
2023/07/02 05:43:51;;;;;;;65.00;17.83;;;20.00;85.80;;;;;;7380964;19;20003;-72
2023/07/02 05:46:20;;;;;;;67.10;18.58;;;20.10;85.70;;;;;;7381169;19;20013;-72
2023/07/02 05:48:48;;;;;;;63.10;19.15;;;20.10;85.90;;;;;;7379880;19;20007;-73
2023/07/02 05:51:22;;;;;;;60.70;19.40;;;20.10;85.80;;;;;;7381155;19;20283;-73
2023/07/02 05:53:54;;;;;;;60.10;18.20;;;20.10;86.20;;;;;;7379269;19;20059;-73
2023/07/02 05:56:22;;;;;;;56.67;18.27;;;20.10;86.30;;;;;;7405571;19;20014;-72
2023/07/02 05:58:54;;;;;;;56.63;17.25;;;20.20;86.10;;;;;;7380359;19;20054;-72
2023/07/02 06:01:22;;;;;;;;;;;20.20;86.20;;;;;;7381445;19;20028;-72
2023/07/02 06:03:53;;;;;;;56.97;17.65;;;20.20;86.00;;;;;;7380064;19;19907;-73
2023/07/02 06:06:22;;;;;;;55.90;16.83;;;20.20;86.20;;;;;;7381012;19;20019;-72
2023/07/02 06:08:53;;;;;;;52.45;17.77;;;20.10;86.40;;;;;;7380645;19;20014;-72
2023/07/02 06:11:22;;;;;;;56.45;17.30;;;20.10;86.60;;;;;;7402826;19;20020;-72
2023/07/02 06:13:54;;;;;;;65.35;19.05;;;20.30;86.40;;;;;;7380429;19;20677;-72
2023/07/02 06:16:23;;;;;;;67.70;18.90;;;20.10;86.60;;;;;;7380259;19;20017;-72
2023/07/02 06:18:52;;;;;;;63.35;17.35;;;20.10;86.60;;;;;;7381104;19;20013;-73
2023/07/02 06:21:20;;;;;;;61.30;17.52;;;20.10;86.70;;;;;;7380236;19;20399;-72
2023/07/02 06:23:49;;;;;;;63.00;18.08;;;20.20;86.60;;;;;;7378670;19;20011;-72
2023/07/02 06:26:18;;;;;;;49.80;17.13;;;20.30;86.30;;;;;;7401383;19;20027;-72
2023/07/02 06:28:46;;;;;;;59.50;18.50;;;20.20;86.40;;;;;;7379550;19;20633;-73
2023/07/02 06:31:18;;;;;;;57.38;17.40;;;20.10;86.40;;;;;;7378979;19;20011;-73
2023/07/02 06:33:46;;;;;;;;;;;20.20;86.40;;;;;;7380844;19;20042;-73
2023/07/02 06:36:15;;;;;;;49.95;16.25;;;20.30;86.40;;;;;;7378401;19;19967;-74
2023/07/02 06:38:44;;;;;;;46.90;16.80;;;20.20;86.60;;;;;;7378970;19;20014;-73
2023/07/02 06:41:12;;;;;;;56.85;16.75;;;20.30;86.80;;;;;;7400800;19;20018;-74
2023/07/02 06:43:41;;;;;;;59.45;17.50;;;20.40;86.50;;;;;;7378386;19;20010;-72
2023/07/02 06:46:12;;;;;;;53.55;18.15;;;20.30;86.10;;;;;;7379133;19;20002;-73
2023/07/02 06:48:44;;;;;;;49.88;17.17;;;20.40;86.20;;;;;;7379668;19;20252;-72
2023/07/02 06:51:14;;;;;;;54.03;16.48;;;20.50;86.10;;;;;;7378400;19;20002;-73
2023/07/02 06:53:43;;;;;;;55.27;17.00;;;20.30;85.50;;;;;;7379784;19;20354;-73
2023/07/02 06:56:12;;;;;;;59.25;17.92;;;20.40;86.30;;;;;;7399060;19;20020;-73
2023/07/02 06:58:42;;;;;;;50.47;16.65;;;20.30;86.40;;;;;;7378859;19;20063;-73
2023/07/02 07:01:11;;;;;;;57.43;17.40;;;20.40;86.40;;;;;;7378581;19;20058;-73
2023/07/02 07:03:40;;;;;;;60.08;18.02;;;20.40;86.20;;;;;;7378765;19;20240;-72
2023/07/02 07:06:11;;;;;;;50.25;17.67;;;20.50;85.80;;;;;;7379824;19;20006;-73
2023/07/02 07:08:41;;;;;;;;;;;20.80;85.60;;;;;;7377641;19;20010;-72
2023/07/02 07:11:10;;;;;;;61.53;18.58;;;20.90;84.90;;;;;;7400181;19;20011;-73
2023/07/02 07:13:38;;;;;;;52.75;18.08;;;20.80;84.90;;;;;;7378016;19;20389;-73
2023/07/02 07:16:10;;;;;;;51.20;15.93;;;20.70;84.40;;;;;;7379293;19;20228;-73
2023/07/02 07:18:39;;;;;;;53.10;17.17;;;20.70;84.10;;;;;;7377886;19;20017;-72
2023/07/02 07:21:07;;;;;;;58.47;17.52;;;20.60;84.30;;;;;;7379670;19;20062;-73
2023/07/02 07:23:40;;;;;;;54.20;17.42;;;20.70;84.30;;;;;;7398780;19;20015;-73
2023/07/02 07:26:09;;;;;;;50.67;16.42;;;20.70;84.10;;;;;;7379989;19;20011;-74
2023/07/02 07:28:38;;;;;;;52.40;16.48;;;20.70;84.40;;;;;;7377684;19;20020;-72
2023/07/02 07:31:07;;;;;;;51.20;17.10;;;20.60;84.40;;;;;;7378351;19;20013;-73
2023/07/02 07:33:35;;;;;;;58.90;17.45;;;21.00;83.90;;;;;;7379392;19;20070;-73
2023/07/02 07:36:04;;;;;;;54.25;16.88;;;21.20;83.70;;;;;;7384866;19;20244;-73
2023/07/02 07:38:34;;;;;;;54.65;16.15;;;21.30;82.70;;;;;;7399648;19;20242;-73
2023/07/02 07:41:05;;;;;;;52.00;16.13;;;21.30;82.70;;;;;;7379816;19;20042;-73
2023/07/02 07:43:34;;;;;;;;;;;21.10;82.10;;;;;;7383885;19;20023;-72
2023/07/02 07:46:03;;;;;;;59.55;17.33;;;21.10;82.70;;;;;;7391876;19;19972;-73
2023/07/02 07:48:31;;;;;;;60.70;17.73;;;21.20;83.60;;;;;;7393111;19;20010;-73
2023/07/02 07:51:00;;;;;;;60.33;16.67;;;21.20;82.80;;;;;;7388742;19;20021;-73
2023/07/02 07:53:29;;;;;;;56.63;17.30;;;21.20;82.60;;;;;;7409383;19;20031;-73
2023/07/02 07:55:57;;;;;;;59.58;17.17;;;21.20;82.40;;;;;;7386860;19;20007;-73
2023/07/02 07:58:29;;;;;;;65.72;17.13;;;21.20;81.70;;;;;;7386095;19;20011;-73
2023/07/02 08:00:57;;;;;;;;;;;21.10;82.20;;;;;;7387115;19;20006;-72
2023/07/02 08:03:26;;;;;;;52.78;16.50;;;21.20;82.00;;;;;;7386385;19;19926;-72
2023/07/02 08:05:55;;;;;;;50.28;16.27;;;21.10;81.70;;;;;;7388261;19;20007;-73
2023/07/02 08:08:24;;;;;;;54.38;17.08;;;20.90;82.40;;;;;;7412634;19;20024;-72
2023/07/02 08:10:55;;;;;;;55.90;16.90;;;21.20;82.80;;;;;;7384887;19;20030;-71
2023/07/02 08:13:25;;;;;;;48.22;16.92;;;21.30;81.90;;;;;;7384506;19;20413;-72
2023/07/02 08:15:59;;;;;;;51.60;15.90;;;21.40;81.60;;;;;;7385064;19;20374;-71
2023/07/02 08:18:28;;;;;;;57.22;17.05;;;21.60;81.50;;;;;;7384613;19;20058;-74
2023/07/02 08:20:57;;;;;;;54.97;17.35;;;21.60;80.70;;;;;;7383733;19;20023;-72
2023/07/02 08:23:25;;;;;;;47.28;15.35;;;21.70;80.40;;;;;;7404727;19;20006;-72
2023/07/02 08:25:54;;;;;;;52.03;16.60;;;21.60;79.80;;;;;;7384199;19;20010;-72
2023/07/02 08:28:23;;;;;;;52.17;16.05;;;21.80;80.00;;;;;;7384443;19;20020;-72
2023/07/02 08:30:51;;;;;;;58.70;16.48;;;21.90;80.00;;;;;;7383010;19;20003;-72
2023/07/02 08:33:23;;;;;;;51.33;15.63;;;21.90;79.50;;;;;;7384847;19;20006;-72
2023/07/02 08:35:51;;;;;;;;;;;21.80;78.50;;;;;;7384987;19;20014;-74
2023/07/02 08:38:20;;;;;;;54.72;16.00;;;21.70;78.80;;;;;;7403683;19;19910;-72
2023/07/02 08:40:48;;;;;;;59.42;16.95;;;21.50;78.40;;;;;;7382678;19;20006;-72
2023/07/02 08:43:17;;;;;;;49.83;15.75;;;21.50;78.90;;;;;;7384214;19;20082;-72
2023/07/02 08:45:46;;;;;;;50.05;16.02;;;21.70;79.20;;;;;;7382437;19;20016;-72
2023/07/02 08:48:17;;;;;;;47.80;15.40;;;21.70;78.20;;;;;;7383269;19;20027;-72
2023/07/02 08:50:50;;;;;;;50.75;15.32;;;21.60;77.90;;;;;;7383123;19;20002;-71
2023/07/02 08:53:19;;;;;;;42.00;15.35;;;21.60;78.50;;;;;;7404971;19;20369;-71
2023/07/02 08:55:47;;;;;;;50.13;15.77;;;21.80;78.40;;;;;;7382286;19;20013;-71
2023/07/02 08:58:21;;;;;;;49.55;15.38;;;21.90;78.00;;;;;;7380717;19;20393;-70
2023/07/02 09:01:11;;;;;;;49.85;16.05;;;22.00;78.10;;;;;;7382943;19;20014;-71
2023/07/02 09:03:41;;;;;;;58.38;15.70;;;22.10;78.00;;;;;;7383483;19;20003;-71
2023/07/02 09:06:14;;;;;;;36.40;14.75;;;22.20;77.70;;;;;;7383456;19;20007;-72
2023/07/02 09:08:42;;;;;;;47.30;14.88;;;22.20;76.20;;;;;;7383038;19;20015;-71
2023/07/02 09:11:12;;;;;;;53.95;16.08;;;22.20;75.10;;;;;;7401603;19;20361;-72
2023/07/02 09:13:52;;;;;;;41.90;14.32;;;22.30;75.60;;;;;;7382507;19;20032;-73
2023/07/02 09:16:25;;;;;;;45.28;14.02;;;22.30;75.60;;;;;;7386816;19;20003;-71
2023/07/02 09:19:01;;;;;;;49.33;15.52;;;22.30;76.10;;;;;;7381582;19;20066;-71
2023/07/02 09:21:41;;;;;;;50.22;15.43;;;22.30;76.00;;;;;;7381009;19;20078;-70
2023/07/02 09:24:20;;;;;;;39.42;13.38;;;22.30;76.10;;;;;;7380779;19;20365;-70
2023/07/02 09:26:50;;;;;;;40.67;14.63;;;22.30;74.40;;;;;;7382743;19;20017;-73
2023/07/02 09:29:21;;;;;;;34.42;12.77;;;22.30;71.80;;;;;;7403376;19;20014;-71
2023/07/02 09:31:51;;;;;;;38.72;13.80;;;22.20;70.90;;;;;;7381297;19;19999;-71
2023/07/02 09:34:24;;;;;;;45.72;13.02;;;22.40;71.50;;;;;;7379602;19;20047;-71
2023/07/02 09:36:56;;;;;;;39.67;13.50;;;22.50;71.20;;;;;;7380279;19;20007;-72
2023/07/02 09:39:32;;;;;;;35.38;12.98;;;22.50;70.30;;;;;;7380864;19;20067;-78
2023/07/02 09:42:06;;;;;;;40.70;13.50;;;22.40;72.20;;;;;;7383056;19;20089;-71
2023/07/02 09:44:36;;;;;;;42.40;13.40;;;22.60;71.90;;;;;;7402470;19;20024;-71
2023/07/02 09:47:06;;;;;;;40.28;13.82;;;22.60;72.40;;;;;;7381730;19;20007;-73
2023/07/02 09:49:36;;;;;;;34.40;12.80;;;22.60;72.10;;;;;;7381777;19;20017;-72
2023/07/02 09:52:09;;;;;;;33.67;12.95;;;22.60;70.20;;;;;;7392971;19;20035;-70
2023/07/02 09:54:39;;;;;;;38.80;12.48;;;22.60;70.20;;;;;;7387893;19;20010;-70
2023/07/02 09:57:09;;;;;;;41.95;13.68;;;22.60;69.70;;;;;;7383122;19;20537;-72
2023/07/02 09:59:37;;;;;;;36.78;12.65;;;22.60;69.40;;;;;;7403773;19;20002;-71
2023/07/02 10:02:06;;;;;;;41.85;12.23;;;22.60;68.70;;;;;;7381129;19;20267;-71
2023/07/02 10:04:43;;;;;;;40.50;12.82;;;22.70;68.80;;;;;;7381336;19;20023;-71
2023/07/02 10:07:15;;;;;;;34.20;12.27;;;22.90;68.20;;;;;;7379570;19;20009;-71
2023/07/02 10:09:46;;;;;;;30.67;11.23;;;22.90;67.80;;;;;;7380746;19;19998;-71
2023/07/02 10:12:19;;;;;;;;;;;22.90;66.40;;;;;;7381968;19;20007;-72
2023/07/02 10:14:49;;;;;;;43.90;12.90;;;22.80;66.40;;;;;;7381197;19;19922;-72
2023/07/02 10:17:28;;;;;;;35.85;12.43;;;22.90;67.50;;;;;;7404567;19;20284;-72
2023/07/02 10:19:58;;;;;;;47.45;13.73;;;22.90;67.30;;;;;;7390469;19;20019;-71
2023/07/02 10:22:30;;;;;;;34.90;12.98;;;22.80;68.30;;;;;;7380981;19;20014;-71
2023/07/02 10:25:00;;;;;;;42.53;12.30;;;22.70;69.10;;;;;;7381005;19;20007;-71
2023/07/02 10:27:42;;;;;;;36.88;12.90;;;22.70;68.90;;;;;;7380722;19;20015;-71
2023/07/02 10:30:12;;;;;;;34.60;12.32;;;22.80;69.10;;;;;;7381714;19;20276;-70
2023/07/02 10:32:41;;;;;;;40.55;12.13;;;22.90;68.90;;;;;;7379331;19;20359;-71
2023/07/02 10:35:17;;;;;;;31.23;11.65;;;22.90;66.20;;;;;;7400277;19;20011;-70
2023/07/02 10:37:48;;;;;;;36.17;12.05;;;23.00;65.50;;;;;;7377833;19;20011;-71
2023/07/02 10:40:17;;;;;;;38.67;12.02;;;23.10;66.00;;;;;;7378677;19;20034;-69
2023/07/02 10:42:50;;;;;;;36.20;11.60;;;23.30;65.20;;;;;;7380107;19;20106;-71
2023/07/02 10:45:19;;;;;;;34.17;12.38;;;23.30;65.70;;;;;;7380682;19;20409;-73
2023/07/02 10:47:48;;;;;;;36.38;12.27;;;23.50;64.20;;;;;;7378085;19;20011;-69
2023/07/02 10:50:18;;;;;;;30.10;11.52;;;23.50;64.00;;;;;;7400530;19;20069;-70
2023/07/02 10:52:51;;;;;;;38.43;12.10;;;23.50;64.40;;;;;;7379373;19;20003;-70
2023/07/02 10:55:21;;;;;;;32.45;11.98;;;23.40;65.50;;;;;;7379484;19;20257;-69
2023/07/02 10:57:53;;;;;;;37.60;12.60;;;23.30;65.40;;;;;;7380028;19;20007;-69
2023/07/02 11:00:22;;;;;;;37.15;12.55;;;23.20;65.60;;;;;;7379370;19;20002;-70
2023/07/02 11:02:52;;;;;;;36.85;12.13;;;23.20;66.60;;;;;;7379612;19;20058;-71
2023/07/02 11:05:21;;;;;;;35.33;12.90;;;23.20;66.30;;;;;;7399347;19;20015;-70
2023/07/02 11:07:56;;;;;;;40.45;12.68;;;23.20;66.90;;;;;;7378512;19;20003;-69
2023/07/02 11:10:27;;;;;;;31.17;12.90;;;23.20;67.10;;;;;;7378167;19;19998;-69
2023/07/02 11:12:56;;;;;;;33.42;13.25;;;23.30;65.10;;;;;;7379246;19;20054;-70
2023/07/02 11:15:24;;;;;;;41.38;12.00;;;23.40;65.70;;;;;;7379512;19;20013;-71
2023/07/02 11:17:53;;;;;;;40.97;12.82;;;23.30;65.70;;;;;;7377341;19;20006;-71
2023/07/02 11:20:22;;;;;;;38.90;11.70;;;23.30;65.50;;;;;;7398800;19;20015;-69
2023/07/02 11:22:56;;;;;;;31.77;11.75;;;23.40;65.40;;;;;;7377943;19;20024;-71
2023/07/02 11:25:25;;;;;;;36.33;12.15;;;23.50;63.70;;;;;;7378664;19;20009;-70
2023/07/02 11:28:05;;;;;;;36.45;11.45;;;23.70;63.80;;;;;;7379024;19;20006;-71
2023/07/02 11:30:35;;;;;;;34.90;12.18;;;23.80;63.40;;;;;;7378865;19;20007;-71
2023/07/02 11:33:04;;;;;;;31.00;11.88;;;23.50;60.90;;;;;;7379237;19;20011;-71
2023/07/02 11:35:43;;;;;;;32.13;11.82;;;23.40;61.70;;;;;;7400449;19;20094;-69
2023/07/02 11:38:14;;;;;;;34.60;11.48;;;23.30;62.50;;;;;;7378009;19;20002;-71
2023/07/02 11:40:48;;;;;;;;;;;23.40;62.30;;;;;;7378325;19;20164;-74
2023/07/02 11:43:17;;;;;;;30.48;11.63;;;23.60;61.30;;;;;;7378239;19;19914;-70
2023/07/02 11:45:46;;;;;;;28.02;11.07;;;23.70;59.70;;;;;;7377539;19;20016;-71
2023/07/02 11:48:15;;;;;;;31.52;11.65;;;23.70;58.90;;;;;;7377141;19;20365;-70
2023/07/02 11:50:44;;;;;;;34.38;12.57;;;23.80;58.40;;;;;;7376490;19;20007;-70
2023/07/02 11:53:15;;;;;;;32.08;11.70;;;23.90;58.30;;;;;;7399385;19;20023;-70
2023/07/02 11:55:44;;;;;;;32.53;11.43;;;23.90;58.40;;;;;;7377190;19;20066;-70
2023/07/02 11:58:12;;;;;;;28.35;12.13;;;23.80;59.60;;;;;;7377025;19;20010;-71
2023/07/02 12:00:41;;;;;;;32.05;11.57;;;23.80;60.30;;;;;;7377165;19;20023;-70
2023/07/02 12:03:10;;;;;;;31.20;11.27;;;23.90;60.00;;;;;;7378207;19;20090;-70
2023/07/02 12:05:38;;;;;;;30.30;10.80;;;24.00;59.30;;;;;;7396407;19;20007;-71
2023/07/02 12:08:08;;;;;;;30.80;11.55;;;24.00;57.40;;;;;;7420067;19;20013;-70
2023/07/02 12:10:39;;;;;;;27.10;11.70;;;24.10;58.00;;;;;;7385275;19;20211;-71
2023/07/02 12:13:07;;;;;;;;;;;24.10;58.70;;;;;;7379938;19;20386;-70
2023/07/02 12:15:36;;;;;;;25.80;10.75;;;24.10;58.80;;;;;;7378679;19;19911;-69
2023/07/02 12:18:05;;;;;;;29.05;11.85;;;24.10;58.60;;;;;;7377124;19;20052;-68
2023/07/02 12:20:33;;;;;;;31.77;11.05;;;24.20;58.00;;;;;;7399976;19;20034;-70
2023/07/02 12:23:02;;;;;;;30.67;12.10;;;24.30;57.80;;;;;;7374799;19;20010;-70
2023/07/02 12:25:31;;;;;;;30.25;11.00;;;24.10;57.40;;;;;;7376310;19;20010;-70
2023/07/02 12:28:04;;;;;;;30.15;11.38;;;24.10;58.80;;;;;;7375914;19;20019;-68
2023/07/02 12:30:33;;;;;;;26.90;10.73;;;24.20;58.30;;;;;;7379782;19;20084;-69
2023/07/02 12:33:02;;;;;;;29.75;10.77;;;24.00;59.30;;;;;;7382730;19;20007;-69
2023/07/02 12:35:30;;;;;;;30.80;10.45;;;24.20;58.80;;;;;;7405936;19;20097;-69
2023/07/02 12:37:59;;;;;;;29.25;11.02;;;24.10;57.90;;;;;;7383599;19;20006;-70
2023/07/02 12:40:28;;;;;;;24.20;10.63;;;24.30;58.50;;;;;;7383020;19;20301;-70
2023/07/02 12:42:56;;;;;;;26.85;10.38;;;24.30;57.70;;;;;;7383035;19;20007;-69
2023/07/02 12:45:28;;;;;;;22.77;9.68;;;24.50;57.20;;;;;;7382689;19;20093;-69
2023/07/02 12:47:56;;;;;;;27.20;10.73;;;24.50;56.50;;;;;;7385309;19;20014;-70
2023/07/02 12:50:25;;;;;;;23.05;9.40;;;24.60;57.20;;;;;;7405295;19;20070;-69